createdAt,value
2018-09-06T00:00:09.893Z,7.60
2018-09-06T00:02:38.192Z,7.90
2018-09-06T00:05:06.335Z,8.47
2018-09-06T00:07:34.423Z,7.97
2018-09-06T00:10:02.473Z,7.90
2018-09-06T00:12:30.639Z,7.97
2018-09-06T00:14:58.752Z,7.93
2018-09-06T00:17:26.880Z,8.17
2018-09-06T00:19:55.038Z,8.10
2018-09-06T00:22:23.973Z,9.23
2018-09-06T00:24:52.060Z,8.13
2018-09-06T00:27:20.236Z,8.97
2018-09-06T00:29:48.323Z,8.20
2018-09-06T00:32:17.186Z,8.27
2018-09-06T00:34:45.411Z,8.97
2018-09-06T00:37:13.538Z,9.10
2018-09-06T00:39:41.714Z,8.83
2018-09-06T00:42:09.809Z,8.73
2018-09-06T00:44:37.937Z,8.70
2018-09-06T00:47:06.035Z,8.77
2018-09-06T00:49:34.222Z,9.07
2018-09-06T00:52:02.345Z,9.30
2018-09-06T00:54:30.460Z,8.80
2018-09-06T00:56:58.632Z,8.73
2018-09-06T00:59:26.736Z,8.80
2018-09-06T01:01:55.636Z,8.90
2018-09-06T01:04:23.750Z,8.97
2018-09-06T01:06:51.938Z,8.93
2018-09-06T01:09:20.050Z,8.87
2018-09-06T01:11:48.118Z,9.37
2018-09-06T01:14:16.325Z,8.90
2018-09-06T01:16:44.437Z,8.53
2018-09-06T01:19:13.412Z,8.93
2018-09-06T01:21:41.565Z,8.90
2018-09-06T01:24:09.647Z,9.33
2018-09-06T01:26:37.770Z,9.00
2018-09-06T01:29:05.994Z,8.70
2018-09-06T01:31:34.136Z,9.23
2018-09-06T01:34:02.230Z,8.60
2018-09-06T01:36:35.891Z,9.97
2018-09-06T01:39:04.963Z,9.07
2018-09-06T01:41:33.979Z,9.33
2018-09-06T01:44:02.063Z,8.80
2018-09-06T01:46:30.313Z,9.50
2018-09-06T01:48:58.464Z,9.40
2018-09-06T01:51:26.576Z,10.10
2018-09-06T01:53:54.690Z,9.77
2018-09-06T01:56:22.870Z,9.10
2018-09-06T01:58:51.355Z,9.50
2018-09-06T02:01:19.486Z,9.40
2018-09-06T02:06:22.412Z,9.47
2018-09-06T02:08:50.552Z,9.67
2018-09-06T02:11:18.713Z,9.37
2018-09-06T02:13:46.977Z,9.90
2018-09-06T02:16:15.021Z,9.07
2018-09-06T02:18:43.659Z,9.10
2018-09-06T02:21:13.050Z,9.47
2018-09-06T02:23:41.210Z,10.40
2018-09-06T02:26:09.311Z,9.67
2018-09-06T02:28:37.444Z,10.20
2018-09-06T02:31:05.539Z,10.03
2018-09-06T02:33:33.572Z,9.17
2018-09-06T02:36:01.699Z,9.30
2018-09-06T02:38:29.820Z,10.17
2018-09-06T02:40:58.022Z,10.07
2018-09-06T02:43:26.218Z,10.80
2018-09-06T02:45:54.747Z,11.73
2018-09-06T02:48:27.268Z,10.17
2018-09-06T02:51:14.522Z,10.27
2018-09-06T02:53:42.692Z,10.50
2018-09-06T02:56:11.518Z,10.83
2018-09-06T02:58:40.038Z,10.53
2018-09-06T03:01:09.075Z,10.90
2018-09-06T03:03:37.309Z,10.60
2018-09-06T03:06:06.467Z,10.53
2018-09-06T03:08:34.588Z,10.90
2018-09-06T03:11:19.707Z,10.60
2018-09-06T03:13:47.830Z,11.00
2018-09-06T03:16:16.009Z,10.37
2018-09-06T03:18:44.174Z,10.53
2018-09-06T03:21:12.319Z,10.93
2018-09-06T03:23:40.379Z,11.17
2018-09-06T03:26:14.494Z,10.63
2018-09-06T03:28:42.610Z,10.43
2018-09-06T03:31:11.626Z,10.63
2018-09-06T03:33:39.738Z,10.90
2018-09-06T03:36:07.857Z,11.20
2018-09-06T03:38:35.930Z,11.53
2018-09-06T03:41:04.055Z,11.70
2018-09-06T03:43:32.154Z,11.03
2018-09-06T03:46:00.230Z,11.03
2018-09-06T03:48:28.459Z,11.47
2018-09-06T03:50:56.653Z,11.87
2018-09-06T03:53:24.723Z,12.07
2018-09-06T03:55:52.904Z,11.70
2018-09-06T03:58:21.122Z,12.30
2018-09-06T04:00:49.894Z,11.97
2018-09-06T04:03:18.006Z,12.67
2018-09-06T04:05:46.270Z,12.53
2018-09-06T04:08:14.446Z,11.57
2018-09-06T04:10:42.717Z,13.30
2018-09-06T04:13:10.828Z,11.83
2018-09-06T04:15:38.947Z,12.50
2018-09-06T04:18:07.455Z,13.90
2018-09-06T04:20:35.554Z,13.30
2018-09-06T04:23:04.957Z,13.27
2018-09-06T04:25:33.063Z,13.40
2018-09-06T04:28:01.162Z,12.90
2018-09-06T04:30:29.263Z,13.10
2018-09-06T04:32:57.431Z,13.03
2018-09-06T04:35:25.633Z,12.67
2018-09-06T04:37:53.746Z,13.00
2018-09-06T04:40:22.645Z,13.80
2018-09-06T04:42:50.771Z,12.93
2018-09-06T04:45:18.842Z,14.70
2018-09-06T04:47:46.906Z,14.70
2018-09-06T04:50:14.978Z,13.20
2018-09-06T04:52:43.148Z,14.10
2018-09-06T04:55:11.311Z,13.57
2018-09-06T04:57:39.357Z,13.47
2018-09-06T05:00:07.508Z,12.57
2018-09-06T05:02:35.823Z,14.10
2018-09-06T05:05:04.510Z,13.73
2018-09-06T05:07:32.715Z,13.67
2018-09-06T05:10:00.777Z,14.13
2018-09-06T05:12:30.053Z,13.93
2018-09-06T05:14:59.314Z,14.77
2018-09-06T05:17:28.350Z,14.77
2018-09-06T05:19:56.472Z,14.53
2018-09-06T05:22:34.278Z,14.33
2018-09-06T05:25:02.531Z,14.23
2018-09-06T05:27:30.809Z,14.73
2018-09-06T05:29:58.889Z,13.83
2018-09-06T05:32:27.091Z,14.80
2018-09-06T05:34:55.224Z,15.83
2018-09-06T05:37:23.380Z,15.77
2018-09-06T05:39:51.439Z,14.70
2018-09-06T05:42:19.654Z,15.93
2018-09-06T05:44:47.764Z,14.57
2018-09-06T05:47:15.918Z,16.83
2018-09-06T05:49:44.056Z,15.03
2018-09-06T05:52:12.138Z,14.63
2018-09-06T05:54:40.201Z,14.77
2018-09-06T05:57:09.155Z,14.87
2018-09-06T05:59:37.298Z,15.53
2018-09-06T06:02:05.407Z,15.47
2018-09-06T06:04:34.010Z,15.47
2018-09-06T06:07:02.830Z,15.37
2018-09-06T06:09:30.918Z,15.27
2018-09-06T06:11:59.067Z,15.37
2018-09-06T06:14:27.240Z,15.23
2018-09-06T06:16:55.481Z,15.30
2018-09-06T06:19:23.666Z,15.63
2018-09-06T06:21:51.799Z,15.03
2018-09-06T06:24:19.862Z,15.77
2018-09-06T06:26:47.998Z,15.20
2018-09-06T06:29:16.103Z,15.90
2018-09-06T06:31:44.241Z,16.23
2018-09-06T06:34:12.419Z,16.57
2018-09-06T06:36:40.551Z,15.67
2018-09-06T06:39:11.654Z,16.70
2018-09-06T06:41:40.223Z,16.50
2018-09-06T06:44:09.421Z,17.63
2018-09-06T06:46:37.877Z,17.17
2018-09-06T06:49:07.457Z,16.43
2018-09-06T06:51:36.502Z,17.13
2018-09-06T06:54:04.850Z,17.47
2018-09-06T06:56:33.735Z,18.27
2018-09-06T06:59:02.147Z,17.53
2018-09-06T07:01:31.086Z,18.40
2018-09-06T07:03:59.541Z,19.53
2018-09-06T07:06:27.875Z,18.20
2018-09-06T07:08:56.254Z,19.70
2018-09-06T07:11:24.697Z,19.00
2018-09-06T07:13:53.146Z,19.10
2018-09-06T07:16:21.580Z,19.37
2018-09-06T07:18:50.266Z,19.00
2018-09-06T07:21:18.741Z,18.60
2018-09-06T07:23:47.103Z,18.60
2018-09-06T07:26:15.484Z,18.07
2018-09-06T07:28:43.924Z,18.67
2018-09-06T07:31:12.625Z,17.57
2018-09-06T07:33:40.967Z,17.97
2018-09-06T07:36:09.984Z,18.03
2018-09-06T07:38:38.310Z,17.30
2018-09-06T07:41:06.738Z,17.00
2018-09-06T07:43:35.087Z,15.63
2018-09-06T07:46:04.685Z,15.63
2018-09-06T07:48:33.624Z,13.83
2018-09-06T07:51:01.986Z,16.07
2018-09-06T07:53:30.417Z,14.07
2018-09-06T07:56:03.834Z,13.17
2018-09-06T07:58:32.341Z,15.47
2018-09-06T08:01:01.722Z,14.40
2018-09-06T08:03:30.312Z,14.70
2018-09-06T08:05:58.697Z,13.03
2018-09-06T08:08:27.089Z,13.57
2018-09-06T08:10:55.492Z,12.63
2018-09-06T08:13:23.867Z,12.33
2018-09-06T08:15:52.407Z,13.23
2018-09-06T08:18:20.751Z,12.67
2018-09-06T08:20:49.283Z,12.80
2018-09-06T08:23:17.666Z,12.73
2018-09-06T08:25:46.126Z,12.13
2018-09-06T08:28:18.987Z,12.23
2018-09-06T08:33:54.502Z,11.80
2018-09-06T08:36:22.883Z,12.23
2018-09-06T08:38:51.278Z,11.40
2018-09-06T08:41:19.726Z,11.70
2018-09-06T08:43:48.136Z,11.60
2018-09-06T08:46:21.703Z,12.17
2018-09-06T08:48:50.611Z,12.13
2018-09-06T08:51:20.032Z,11.13
2018-09-06T08:53:48.384Z,11.67
2018-09-06T08:56:16.767Z,11.57
2018-09-06T08:58:45.751Z,11.03
2018-09-06T09:01:19.915Z,12.10
2018-09-06T09:03:50.345Z,11.33
2018-09-06T09:06:18.855Z,11.77
2018-09-06T09:08:47.304Z,12.07
2018-09-06T09:11:15.789Z,13.53
2018-09-06T09:13:44.917Z,10.60
2018-09-06T09:16:14.075Z,11.70
2018-09-06T09:18:42.425Z,11.03
2018-09-06T09:21:10.786Z,20.10
2018-09-06T09:23:42.174Z,15.30
2018-09-06T09:26:10.578Z,11.37
2018-09-06T09:28:38.996Z,10.80
2018-09-06T09:31:07.422Z,12.40
2018-09-06T09:33:35.860Z,10.30
2018-09-06T09:36:04.898Z,11.10
2018-09-06T09:38:33.400Z,10.27
2018-09-06T09:41:01.880Z,10.77
2018-09-06T09:43:30.298Z,10.33
2018-09-06T09:48:27.239Z,10.60
2018-09-06T09:50:55.804Z,10.37
2018-09-06T09:53:24.397Z,10.60
2018-09-06T09:55:52.868Z,9.67
2018-09-06T09:58:21.370Z,8.93
2018-09-06T10:00:50.048Z,9.90
2018-09-06T10:03:23.787Z,10.97
2018-09-06T10:05:57.546Z,11.83
2018-09-06T10:08:31.337Z,11.70
2018-09-06T10:10:59.770Z,12.23
2018-09-06T10:13:28.324Z,9.40
2018-09-06T10:15:56.954Z,10.00
2018-09-06T10:18:25.546Z,10.10
2018-09-06T10:20:53.967Z,9.03
2018-09-06T10:23:22.468Z,9.00
2018-09-06T10:25:50.850Z,8.47
2018-09-06T10:28:19.389Z,8.23
2018-09-06T10:30:47.771Z,8.03
2018-09-06T10:33:16.166Z,8.77
2018-09-06T10:35:44.561Z,9.70
2018-09-06T10:38:12.981Z,10.30
2018-09-06T10:40:41.473Z,9.53
2018-09-06T10:43:11.517Z,9.40
2018-09-06T10:45:39.942Z,9.23
2018-09-06T10:48:08.309Z,9.30
2018-09-06T10:50:36.757Z,9.47
2018-09-06T10:53:05.119Z,9.27
2018-09-06T10:55:33.521Z,9.33
2018-09-06T10:58:01.873Z,9.57
2018-09-06T11:00:31.106Z,10.17
2018-09-06T11:03:01.814Z,9.13
2018-09-06T11:05:30.240Z,8.43
2018-09-06T11:07:58.681Z,9.40
2018-09-06T11:10:27.152Z,8.63
2018-09-06T11:12:56.277Z,8.77
2018-09-06T11:15:25.019Z,8.00
2018-09-06T11:17:53.749Z,7.77
2018-09-06T11:20:22.204Z,7.93
2018-09-06T11:22:50.588Z,8.07
2018-09-06T11:25:18.981Z,8.50
2018-09-06T11:27:47.485Z,8.33
2018-09-06T11:30:16.006Z,8.57
2018-09-06T11:32:44.381Z,7.50
2018-09-06T11:35:12.753Z,7.33
2018-09-06T11:37:41.110Z,8.33
2018-09-06T11:40:09.644Z,8.07
2018-09-06T11:42:38.023Z,8.37
2018-09-06T11:45:06.562Z,8.17
2018-09-06T11:47:34.978Z,8.30
2018-09-06T11:50:03.493Z,7.47
2018-09-06T11:52:31.877Z,7.50
2018-09-06T11:55:00.878Z,8.20
2018-09-06T11:57:29.330Z,7.50
2018-09-06T11:59:57.934Z,7.30
2018-09-06T12:02:26.352Z,6.80
2018-09-06T12:04:55.768Z,10.57
2018-09-06T12:07:25.033Z,7.43
2018-09-06T12:09:53.575Z,8.20
2018-09-06T12:12:22.436Z,9.10
2018-09-06T12:14:51.517Z,8.17
2018-09-06T12:17:19.979Z,9.87
2018-09-06T12:19:48.595Z,7.57
2018-09-06T12:22:16.975Z,7.43
2018-09-06T12:24:45.842Z,7.53
2018-09-06T12:27:14.205Z,7.63
2018-09-06T12:29:42.934Z,7.97
2018-09-06T12:32:11.526Z,6.93
2018-09-06T12:34:40.037Z,10.43
2018-09-06T12:37:13.392Z,6.80
2018-09-06T12:39:43.172Z,6.30
2018-09-06T12:42:12.155Z,8.33
2018-09-06T12:44:40.889Z,7.73
2018-09-06T12:47:09.319Z,7.13
2018-09-06T12:49:37.850Z,8.53
2018-09-06T12:52:06.196Z,7.20
2018-09-06T12:54:37.871Z,7.20
2018-09-06T12:57:06.362Z,7.70
2018-09-06T12:59:34.890Z,7.53
2018-09-06T13:02:03.354Z,7.40
2018-09-06T13:04:31.759Z,7.07
2018-09-06T13:07:00.206Z,7.40
2018-09-06T13:09:28.636Z,6.83
2018-09-06T13:11:56.939Z,7.23
2018-09-06T13:14:25.233Z,7.23
2018-09-06T13:16:53.763Z,6.63
2018-09-06T13:19:26.900Z,6.83
2018-09-06T13:21:55.319Z,6.57
2018-09-06T13:24:23.728Z,7.20
2018-09-06T13:26:55.880Z,7.00
2018-09-06T13:29:24.752Z,6.83
2018-09-06T13:31:53.143Z,7.37
2018-09-06T13:34:21.539Z,7.20
2018-09-06T13:36:50.211Z,6.90
2018-09-06T13:39:18.546Z,6.90
2018-09-06T13:41:46.867Z,7.03
2018-09-06T13:44:15.257Z,6.67
2018-09-06T13:46:43.602Z,7.20
2018-09-06T13:49:12.002Z,6.93
2018-09-06T13:51:40.377Z,6.90
2018-09-06T13:54:08.744Z,7.20
2018-09-06T13:56:37.255Z,7.40
2018-09-06T13:59:05.668Z,7.17
2018-09-06T14:01:34.352Z,8.10
2018-09-06T14:04:02.784Z,7.07
2018-09-06T14:06:31.263Z,7.20
2018-09-06T14:09:00.059Z,6.93
2018-09-06T14:11:28.430Z,7.90
2018-09-06T14:13:56.848Z,7.07
2018-09-06T14:16:26.523Z,7.20
2018-09-06T14:18:54.919Z,7.87
2018-09-06T14:21:25.945Z,7.60
2018-09-06T14:23:54.433Z,7.30
2018-09-06T14:26:22.895Z,7.33
2018-09-06T14:28:51.500Z,7.20
2018-09-06T14:31:20.272Z,7.03
2018-09-06T14:33:48.829Z,7.60
2018-09-06T14:36:17.388Z,7.43
2018-09-06T14:38:45.974Z,6.73
2018-09-06T14:41:15.236Z,7.30
2018-09-06T14:43:43.660Z,7.60
2018-09-06T14:46:12.196Z,6.73
2018-09-06T14:48:40.754Z,7.03
2018-09-06T14:51:09.133Z,6.97
2018-09-06T14:53:37.459Z,8.03
2018-09-06T14:56:05.806Z,8.03
2018-09-06T14:58:34.923Z,7.53
2018-09-06T15:01:03.322Z,7.67
2018-09-06T15:03:32.108Z,7.37
2018-09-06T15:06:00.533Z,8.67
2018-09-06T15:08:28.875Z,7.07
2018-09-06T15:10:57.377Z,9.63
2018-09-06T15:13:25.771Z,8.03
2018-09-06T15:15:54.466Z,7.43
2018-09-06T15:18:22.921Z,7.30
2018-09-06T15:20:51.298Z,7.23
2018-09-06T15:23:19.839Z,7.13
2018-09-06T15:25:48.761Z,6.90
2018-09-06T15:28:17.155Z,8.50
2018-09-06T15:30:47.813Z,8.20
2018-09-06T15:33:16.292Z,7.53
2018-09-06T15:35:44.642Z,7.07
2018-09-06T15:38:13.030Z,7.80
2018-09-06T15:40:41.510Z,7.33
2018-09-06T15:43:09.921Z,7.10
2018-09-06T15:45:38.217Z,7.20
2018-09-06T15:48:06.616Z,7.57
2018-09-06T15:50:36.067Z,7.30
2018-09-06T15:53:04.422Z,7.70
2018-09-06T15:55:32.831Z,8.60
2018-09-06T15:58:01.187Z,8.10
2018-09-06T16:00:30.127Z,7.33
2018-09-06T16:02:58.513Z,7.77
2018-09-06T16:05:26.816Z,7.77
2018-09-06T16:07:55.242Z,7.50
2018-09-06T16:10:24.004Z,7.90
2018-09-06T16:12:52.394Z,7.77
2018-09-06T16:15:20.699Z,7.63
2018-09-06T16:17:49.143Z,7.47
2018-09-06T16:20:17.487Z,7.53
2018-09-06T16:22:46.308Z,7.77
2018-09-06T16:25:14.891Z,7.63
2018-09-06T16:27:43.333Z,7.63
2018-09-06T16:30:11.821Z,7.90
2018-09-06T16:32:40.220Z,7.80
2018-09-06T16:35:08.581Z,7.53
2018-09-06T16:37:37.720Z,7.57
2018-09-06T16:40:06.114Z,7.60
2018-09-06T16:42:34.661Z,7.40
2018-09-06T16:45:03.322Z,11.20
2018-09-06T16:47:32.328Z,7.60
2018-09-06T16:50:00.778Z,8.47
2018-09-06T16:52:29.302Z,8.17
2018-09-06T16:54:57.813Z,7.90
2018-09-06T16:57:26.226Z,7.83
2018-09-06T16:59:54.647Z,8.40
2018-09-06T17:02:23.242Z,8.08
2018-09-06T17:04:52.566Z,7.70
2018-09-06T17:07:21.728Z,8.07
2018-09-06T17:09:57.782Z,7.73
2018-09-06T17:12:26.304Z,8.00
2018-09-06T17:14:54.634Z,8.57
2018-09-06T17:17:22.951Z,8.00
2018-09-06T17:19:51.416Z,7.63
2018-09-06T17:22:19.963Z,8.00
2018-09-06T17:24:48.446Z,8.60
2018-09-06T17:27:16.780Z,8.70
2018-09-06T17:29:45.195Z,8.07
2018-09-06T17:32:13.620Z,9.00
2018-09-06T17:34:41.994Z,8.50
2018-09-06T17:37:10.431Z,8.23
2018-09-06T17:39:39.443Z,8.03
2018-09-06T17:42:08.009Z,8.40
2018-09-06T17:44:36.540Z,7.93
2018-09-06T17:47:05.071Z,7.43
2018-09-06T17:49:33.416Z,8.30
2018-09-06T17:52:01.853Z,8.23
2018-09-06T17:54:30.326Z,7.67
2018-09-06T17:56:59.072Z,8.27
2018-09-06T17:59:47.477Z,8.27
2018-09-06T18:02:18.252Z,8.33
2018-09-06T18:04:46.959Z,8.23
2018-09-06T18:07:15.389Z,8.03
2018-09-06T18:09:43.827Z,8.90
2018-09-06T18:12:11.976Z,8.20
2018-09-06T18:14:40.133Z,8.43
2018-09-06T18:17:08.219Z,8.87
2018-09-06T18:19:36.293Z,8.30
2018-09-06T18:22:04.424Z,8.07
2018-09-06T18:24:32.604Z,8.83
2018-09-06T18:27:01.483Z,8.43
2018-09-06T18:29:29.619Z,8.70
2018-09-06T18:31:57.774Z,9.03
2018-09-06T18:34:25.876Z,8.60
2018-09-06T18:36:53.954Z,8.80
2018-09-06T18:39:22.130Z,8.23
2018-09-06T18:41:50.352Z,8.27
2018-09-06T18:44:18.482Z,8.50
2018-09-06T18:46:47.034Z,8.40
2018-09-06T18:49:16.152Z,8.80
2018-09-06T18:51:44.305Z,8.23
2018-09-06T18:54:12.423Z,9.07
2018-09-06T18:56:40.552Z,8.97
2018-09-06T18:59:08.644Z,9.00
2018-09-06T19:01:36.930Z,8.20
2018-09-06T19:04:05.120Z,7.87
2018-09-06T19:06:34.095Z,8.83
2018-09-06T19:09:02.436Z,8.90
2018-09-06T19:11:30.594Z,9.47
2018-09-06T19:13:58.800Z,17.60
2018-09-06T19:16:26.950Z,9.03
2018-09-06T19:18:55.139Z,8.90
2018-09-06T19:21:23.262Z,8.30
2018-09-06T19:23:51.354Z,9.23
2018-09-06T19:26:19.486Z,8.47
2018-09-06T19:28:47.982Z,8.43
2018-09-06T19:31:16.794Z,8.83
2018-09-06T19:33:45.220Z,8.43
2018-09-06T19:36:14.173Z,9.00
2018-09-06T19:38:42.478Z,10.73
2018-09-06T19:41:10.689Z,8.50
2018-09-06T19:43:39.401Z,9.13
2018-09-06T19:46:07.784Z,9.03
2018-09-06T19:48:36.159Z,9.13
2018-09-06T19:51:04.735Z,9.17
2018-09-06T19:53:32.940Z,9.47
2018-09-06T19:56:01.251Z,9.37
2018-09-06T19:58:29.441Z,8.63
2018-09-06T20:00:59.161Z,8.57
2018-09-06T20:03:27.738Z,8.77
2018-09-06T20:05:56.066Z,8.77
2018-09-06T20:08:24.615Z,9.03
2018-09-06T20:11:04.781Z,9.20
2018-09-06T20:13:33.045Z,9.53
2018-09-06T20:16:01.515Z,9.03
2018-09-06T20:18:29.864Z,8.60
2018-09-06T20:20:58.907Z,9.13
2018-09-06T20:23:27.169Z,8.93
2018-09-06T20:25:55.387Z,8.67
2018-09-06T20:28:23.594Z,9.27
2018-09-06T20:30:52.279Z,12.77
2018-09-06T20:33:20.439Z,8.43
2018-09-06T20:35:49.228Z,42.43
2018-09-06T20:38:17.346Z,10.27
2018-09-06T20:40:46.369Z,8.67
2018-09-06T20:43:14.510Z,9.00
2018-09-06T20:45:42.636Z,9.23
2018-09-06T20:48:10.738Z,9.30
2018-09-06T20:50:38.987Z,9.27
2018-09-06T20:53:08.210Z,8.70
2018-09-06T20:55:36.335Z,8.73
2018-09-06T20:58:04.534Z,8.77
2018-09-06T21:00:32.853Z,9.67
2018-09-06T21:03:00.977Z,8.90
2018-09-06T21:05:29.254Z,8.83
2018-09-06T21:07:57.446Z,9.07
2018-09-06T21:10:25.696Z,8.93
2018-09-06T21:12:54.446Z,9.07
2018-09-06T21:15:22.633Z,9.57
2018-09-06T21:17:50.770Z,9.03
2018-09-06T21:20:18.894Z,8.23
2018-09-06T21:22:47.047Z,8.83
2018-09-06T21:25:15.208Z,9.33
2018-09-06T21:27:43.420Z,8.53
2018-09-06T21:30:11.545Z,9.10
2018-09-06T21:32:39.696Z,10.13
2018-09-06T21:35:07.918Z,10.03
2018-09-06T21:37:36.148Z,9.73
2018-09-06T21:40:04.601Z,10.20
2018-09-06T21:42:33.571Z,10.03
2018-09-06T21:45:01.809Z,9.40
2018-09-06T21:47:29.969Z,9.90
2018-09-06T21:49:58.051Z,9.27
2018-09-06T21:52:26.161Z,9.30
2018-09-06T21:54:54.346Z,9.30
2018-09-06T21:57:22.561Z,9.20
2018-09-06T21:59:50.751Z,9.70
2018-09-06T22:02:24.421Z,9.30
2018-09-06T22:07:33.631Z,9.77
2018-09-06T22:10:03.472Z,10.00
2018-09-06T22:12:32.419Z,10.10
2018-09-06T22:15:00.574Z,9.80
2018-09-06T22:17:28.893Z,10.40
2018-09-06T22:20:01.506Z,10.07
2018-09-06T22:22:30.617Z,9.90
2018-09-06T22:24:58.951Z,9.57
2018-09-06T22:27:27.797Z,10.63
2018-09-06T22:29:55.908Z,11.23
2018-09-06T22:32:24.034Z,10.37
2018-09-06T22:34:52.108Z,10.70
2018-09-06T22:37:20.181Z,10.83
2018-09-06T22:39:48.256Z,10.57
2018-09-06T22:42:16.407Z,10.70
2018-09-06T22:44:44.506Z,10.63
2018-09-06T22:47:12.688Z,11.10
2018-09-06T22:49:40.842Z,10.07
2018-09-06T22:52:09.688Z,11.10
2018-09-06T22:54:37.851Z,11.10
2018-09-06T22:57:05.993Z,11.00
2018-09-06T22:59:34.067Z,10.83
2018-09-06T23:02:02.287Z,11.27
2018-09-06T23:04:30.458Z,11.13
2018-09-06T23:06:59.291Z,11.20
2018-09-06T23:09:27.451Z,11.00
2018-09-06T23:11:55.647Z,10.97
2018-09-06T23:14:23.747Z,11.53
2018-09-06T23:16:53.129Z,11.93
2018-09-06T23:19:21.408Z,10.83
2018-09-06T23:21:49.471Z,11.50
2018-09-06T23:24:17.544Z,11.03
2018-09-06T23:26:45.686Z,11.20
2018-09-06T23:29:13.779Z,11.27
2018-09-06T23:31:41.882Z,11.03
2018-09-06T23:34:09.921Z,11.27
2018-09-06T23:36:38.063Z,11.13
2018-09-06T23:39:06.626Z,11.07
2018-09-06T23:41:35.112Z,11.17
2018-09-06T23:44:03.210Z,11.70
2018-09-06T23:46:31.363Z,10.83
2018-09-06T23:49:00.098Z,11.70
2018-09-06T23:51:28.218Z,11.87
2018-09-06T23:53:56.362Z,11.80
2018-09-06T23:56:24.412Z,11.07
2018-09-06T23:58:52.488Z,12.27
